createdAt,value
2022-07-27T00:01:03.943Z,2.70
2022-07-27T00:03:33.184Z,2.83
2022-07-27T00:06:01.089Z,2.57
2022-07-27T00:08:29.001Z,2.50
2022-07-27T00:10:57.265Z,2.30
2022-07-27T00:13:25.124Z,2.40
2022-07-27T00:15:53.401Z,2.53
2022-07-27T00:18:21.423Z,2.50
2022-07-27T00:20:50.738Z,2.67
2022-07-27T00:23:18.629Z,3.13
2022-07-27T00:25:46.534Z,2.73
2022-07-27T00:28:14.425Z,2.37
2022-07-27T00:30:42.310Z,2.50
2022-07-27T00:33:10.494Z,2.63
2022-07-27T00:35:44.876Z,2.30
2022-07-27T00:38:14.107Z,2.80
2022-07-27T00:40:41.941Z,2.60
2022-07-27T00:43:09.823Z,2.87
2022-07-27T00:45:37.808Z,2.13
2022-07-27T00:48:06.705Z,2.67
2022-07-27T00:50:34.614Z,2.00
2022-07-27T00:53:04.732Z,2.40
2022-07-27T00:55:34.278Z,2.50
2022-07-27T00:58:03.591Z,2.50
2022-07-27T01:00:31.781Z,2.30
2022-07-27T01:03:01.237Z,2.60
2022-07-27T01:05:37.866Z,2.87
2022-07-27T01:08:12.329Z,2.70
2022-07-27T01:10:42.470Z,2.60
2022-07-27T01:13:12.535Z,2.80
2022-07-27T01:15:41.533Z,2.93
2022-07-27T01:18:12.779Z,1.90
2022-07-27T01:20:41.294Z,2.40
2022-07-27T01:23:11.010Z,2.57
2022-07-27T01:25:41.419Z,2.40
2022-07-27T01:28:09.300Z,2.10
2022-07-27T01:30:37.293Z,2.23
2022-07-27T01:33:07.521Z,2.30
2022-07-27T01:35:36.863Z,2.40
2022-07-27T01:38:05.442Z,2.90
2022-07-27T01:40:36.641Z,2.30
2022-07-27T01:43:05.007Z,2.40
2022-07-27T01:45:32.906Z,2.00
2022-07-27T01:48:00.799Z,2.67
2022-07-27T01:50:28.862Z,2.50
2022-07-27T01:52:56.717Z,1.90
2022-07-27T01:55:24.836Z,2.40
2022-07-27T01:57:54.008Z,2.47
2022-07-27T02:00:21.847Z,2.60
2022-07-27T02:02:49.734Z,2.40
2022-07-27T02:05:17.663Z,2.00
2022-07-27T02:07:45.601Z,2.03
2022-07-27T02:10:13.472Z,2.30
2022-07-27T02:12:40.308Z,2.10
2022-07-27T02:15:14.784Z,2.20
2022-07-27T02:17:45.033Z,2.33
2022-07-27T02:20:14.274Z,2.40
2022-07-27T02:22:42.421Z,2.13
2022-07-27T02:25:11.445Z,2.30
2022-07-27T02:27:40.358Z,2.40
2022-07-27T02:30:11.464Z,2.67
2022-07-27T02:32:40.396Z,2.50
2022-07-27T02:35:19.825Z,2.50
2022-07-27T02:37:48.713Z,2.50
2022-07-27T02:40:17.891Z,3.53
2022-07-27T02:42:46.572Z,2.20
2022-07-27T02:45:16.963Z,2.80
2022-07-27T02:47:45.729Z,2.20
2022-07-27T02:50:13.788Z,2.30
2022-07-27T02:52:41.991Z,2.73
2022-07-27T02:55:10.726Z,2.23
2022-07-27T02:57:40.989Z,1.97
2022-07-27T03:00:12.289Z,2.10
2022-07-27T03:02:41.903Z,2.17
2022-07-27T03:05:11.474Z,2.50
2022-07-27T03:07:39.554Z,2.00
2022-07-27T03:10:08.257Z,2.40
2022-07-27T03:12:36.090Z,2.27
2022-07-27T03:15:04.094Z,2.30
2022-07-27T03:17:32.789Z,2.07
2022-07-27T03:20:01.954Z,1.90
2022-07-27T03:22:32.393Z,2.80
2022-07-27T03:25:00.314Z,3.00
2022-07-27T03:27:28.998Z,2.00
2022-07-27T03:29:57.297Z,2.17
2022-07-27T03:32:25.329Z,2.50
2022-07-27T03:34:53.238Z,2.67
2022-07-27T03:37:22.476Z,2.47
2022-07-27T03:39:50.284Z,2.20
2022-07-27T03:42:18.141Z,2.60
2022-07-27T03:44:45.949Z,2.10
2022-07-27T03:47:13.843Z,2.70
2022-07-27T03:49:42.201Z,2.03
2022-07-27T03:52:13.082Z,2.20
2022-07-27T03:54:46.544Z,2.40
2022-07-27T03:57:14.431Z,1.80
2022-07-27T03:59:42.252Z,2.27
2022-07-27T04:02:10.353Z,2.53
2022-07-27T04:04:38.299Z,2.30
2022-07-27T04:07:06.149Z,1.90
2022-07-27T04:09:34.342Z,2.40
2022-07-27T04:12:03.494Z,2.03
2022-07-27T04:14:31.508Z,2.20
2022-07-27T04:16:59.412Z,2.23
2022-07-27T04:19:27.396Z,1.90
2022-07-27T04:21:55.307Z,1.87
2022-07-27T04:24:23.200Z,1.63
2022-07-27T04:26:51.219Z,1.67
2022-07-27T04:29:21.271Z,1.90
2022-07-27T04:31:49.357Z,1.63
2022-07-27T04:34:17.225Z,2.33
2022-07-27T04:36:45.069Z,1.50
2022-07-27T04:39:13.296Z,1.40
2022-07-27T04:41:41.290Z,1.90
2022-07-27T04:44:09.345Z,1.90
2022-07-27T04:46:38.559Z,1.50
2022-07-27T04:49:06.655Z,2.27
2022-07-27T04:51:35.300Z,1.63
2022-07-27T04:54:03.704Z,1.93
2022-07-27T04:56:31.601Z,1.67
2022-07-27T04:58:59.418Z,1.70
2022-07-27T05:01:31.653Z,1.73
2022-07-27T05:04:05.107Z,1.77
2022-07-27T05:06:33.080Z,2.13
2022-07-27T05:09:01.041Z,2.20
2022-07-27T05:11:28.947Z,2.13
2022-07-27T05:13:56.782Z,2.20
2022-07-27T05:16:28.467Z,2.40
2022-07-27T05:18:57.169Z,1.90
2022-07-27T05:21:27.265Z,1.90
2022-07-27T05:23:55.593Z,2.20
2022-07-27T05:26:23.418Z,1.80
2022-07-27T05:28:51.259Z,2.00
2022-07-27T05:31:19.582Z,1.90
2022-07-27T05:33:49.789Z,1.73
2022-07-27T05:36:19.369Z,2.23
2022-07-27T05:38:48.509Z,1.97
2022-07-27T05:41:16.577Z,2.10
2022-07-27T05:43:44.549Z,2.00
2022-07-27T05:46:12.507Z,2.07
2022-07-27T05:48:40.605Z,2.07
2022-07-27T05:51:09.370Z,2.37
2022-07-27T05:53:37.214Z,2.13
2022-07-27T05:56:07.923Z,2.10
2022-07-27T05:58:35.893Z,2.37
2022-07-27T06:01:03.865Z,2.17
2022-07-27T06:03:31.993Z,2.20
2022-07-27T06:06:14.027Z,1.93
2022-07-27T06:08:41.929Z,1.80
2022-07-27T06:11:11.408Z,1.57
2022-07-27T06:13:41.929Z,2.53
2022-07-27T06:16:10.815Z,2.80
2022-07-27T06:18:39.001Z,1.97
2022-07-27T06:21:06.868Z,1.73
2022-07-27T06:23:34.871Z,2.07
2022-07-27T06:26:02.845Z,1.80
2022-07-27T06:28:32.129Z,2.17
2022-07-27T06:31:00.302Z,1.80
2022-07-27T06:33:29.479Z,2.00
2022-07-27T06:35:58.443Z,2.20
2022-07-27T06:38:26.802Z,1.53
2022-07-27T06:40:54.935Z,2.00
2022-07-27T06:43:23.593Z,2.03
2022-07-27T06:45:54.111Z,1.83
2022-07-27T06:48:22.595Z,2.00
2022-07-27T06:50:50.683Z,1.67
2022-07-27T06:53:21.289Z,2.10
2022-07-27T06:55:49.396Z,1.70
2022-07-27T06:58:17.635Z,1.80
2022-07-27T07:00:45.565Z,1.67
2022-07-27T07:03:14.826Z,1.70
2022-07-27T07:05:44.310Z,1.50
2022-07-27T07:08:13.161Z,1.50
2022-07-27T07:10:41.709Z,2.20
2022-07-27T07:13:10.177Z,1.57
2022-07-27T07:15:40.093Z,1.87
2022-07-27T07:18:08.715Z,1.40
2022-07-27T07:20:38.534Z,1.70
2022-07-27T07:23:07.072Z,1.80
2022-07-27T07:25:35.652Z,2.00
2022-07-27T07:28:04.559Z,1.67
2022-07-27T07:30:32.687Z,1.63
2022-07-27T07:33:00.578Z,1.60
2022-07-27T07:35:28.560Z,1.53
2022-07-27T07:37:57.802Z,1.50
2022-07-27T07:40:43.867Z,1.67
2022-07-27T07:43:13.688Z,2.00
2022-07-27T07:45:50.662Z,1.53
2022-07-27T07:48:20.324Z,2.20
2022-07-27T07:50:51.357Z,1.93
2022-07-27T07:53:22.153Z,1.80
2022-07-27T07:55:50.389Z,1.80
2022-07-27T07:58:18.694Z,2.67
2022-07-27T08:00:46.641Z,1.93
2022-07-27T08:03:15.157Z,2.07
2022-07-27T08:05:43.022Z,2.23
2022-07-27T08:08:10.985Z,1.90
2022-07-27T08:10:40.165Z,1.90
2022-07-27T08:13:08.609Z,1.70
2022-07-27T08:15:36.809Z,2.07
2022-07-27T08:18:05.857Z,1.63
2022-07-27T08:20:35.874Z,1.80
2022-07-27T08:23:04.942Z,2.00
2022-07-27T08:25:33.298Z,2.10
2022-07-27T08:28:02.835Z,2.30
2022-07-27T08:30:33.113Z,1.60
2022-07-27T08:33:03.298Z,2.00
2022-07-27T08:35:32.526Z,2.00
2022-07-27T08:38:01.848Z,2.10
2022-07-27T08:40:46.790Z,1.67
2022-07-27T08:43:24.348Z,2.00
2022-07-27T08:45:56.178Z,2.30
2022-07-27T08:48:25.554Z,2.30
2022-07-27T08:50:53.739Z,1.77
2022-07-27T08:53:23.268Z,2.20
2022-07-27T08:55:51.854Z,1.90
2022-07-27T08:58:21.083Z,2.10
2022-07-27T09:00:50.851Z,2.37
2022-07-27T09:03:21.294Z,1.80
2022-07-27T09:05:53.074Z,2.40
2022-07-27T09:08:24.095Z,1.40
2022-07-27T09:10:54.319Z,1.40
2022-07-27T09:13:25.820Z,1.60
2022-07-27T09:16:16.939Z,1.73
2022-07-27T09:18:43.306Z,1.30
2022-07-27T09:21:14.139Z,1.60
2022-07-27T09:23:43.971Z,1.70
2022-07-27T09:26:29.821Z,1.70
2022-07-27T09:29:01.718Z,1.70
2022-07-27T09:31:30.186Z,1.83
2022-07-27T09:34:00.147Z,1.53
2022-07-27T09:36:29.502Z,1.37
2022-07-27T09:39:12.825Z,1.87
2022-07-27T09:41:43.064Z,2.27
2022-07-27T09:47:02.186Z,1.80
2022-07-27T09:49:33.283Z,1.83
2022-07-27T09:52:03.344Z,1.60
2022-07-27T09:54:46.923Z,1.60
2022-07-27T09:57:15.116Z,1.50
2022-07-27T09:59:44.286Z,1.53
2022-07-27T10:02:14.453Z,1.70
2022-07-27T10:04:43.122Z,1.53
2022-07-27T10:07:13.664Z,1.80
2022-07-27T10:09:42.152Z,1.77
2022-07-27T10:12:10.535Z,1.60
2022-07-27T10:14:38.407Z,1.57
2022-07-27T10:17:10.630Z,1.47
2022-07-27T10:19:45.916Z,1.80
2022-07-27T10:22:14.399Z,2.00
2022-07-27T10:24:42.402Z,1.77
2022-07-27T10:27:21.263Z,1.63
2022-07-27T10:29:49.580Z,1.60
2022-07-27T10:32:26.952Z,1.40
2022-07-27T10:34:55.102Z,1.53
2022-07-27T10:37:27.666Z,1.50
2022-07-27T10:40:11.154Z,1.70
2022-07-27T10:42:39.563Z,1.67
2022-07-27T10:45:10.583Z,1.60
2022-07-27T10:47:42.970Z,1.80
2022-07-27T10:50:31.853Z,1.50
2022-07-27T10:53:11.105Z,1.40
2022-07-27T10:56:00.302Z,1.80
2022-07-27T10:58:48.600Z,1.63
2022-07-27T11:01:18.311Z,1.47
2022-07-27T11:03:53.407Z,1.50
2022-07-27T11:06:41.864Z,1.27
2022-07-27T11:12:11.227Z,1.30
2022-07-27T11:14:47.307Z,1.50
2022-07-27T11:17:49.540Z,1.53
2022-07-27T11:20:06.928Z,1.53
2022-07-27T11:25:25.011Z,1.47
2022-07-27T11:27:53.083Z,1.60
2022-07-27T11:30:26.311Z,1.50
2022-07-27T11:32:55.056Z,1.30
2022-07-27T11:35:24.411Z,1.50
2022-07-27T11:38:00.356Z,1.40
2022-07-27T11:40:56.481Z,1.17
2022-07-27T11:43:33.791Z,1.53
2022-07-27T11:46:16.125Z,1.27
2022-07-27T11:51:39.464Z,1.80
2022-07-27T11:54:09.154Z,1.20
2022-07-27T11:56:39.174Z,1.50
2022-07-27T11:59:12.988Z,1.37
2022-07-27T12:01:45.616Z,1.80
2022-07-27T12:04:19.699Z,1.20
2022-07-27T12:06:55.657Z,1.60
2022-07-27T12:09:23.873Z,1.30
2022-07-27T12:12:02.015Z,1.30
2022-07-27T12:14:36.850Z,1.50
2022-07-27T12:17:22.304Z,1.20
2022-07-27T12:20:01.977Z,1.43
2022-07-27T12:22:37.161Z,1.50
2022-07-27T12:25:10.043Z,1.50
2022-07-27T12:27:55.250Z,1.37
2022-07-27T12:30:31.574Z,1.40
2022-07-27T12:32:59.865Z,1.50
2022-07-27T12:35:35.972Z,1.70
2022-07-27T12:38:09.731Z,1.10
2022-07-27T12:40:46.377Z,1.60
2022-07-27T12:43:18.090Z,1.50
2022-07-27T12:45:46.987Z,1.53
2022-07-27T12:48:17.701Z,1.43
2022-07-27T12:50:47.089Z,1.40
2022-07-27T12:53:17.885Z,1.53
2022-07-27T12:55:45.839Z,1.27
2022-07-27T12:58:14.952Z,1.37
2022-07-27T13:00:43.389Z,1.77
2022-07-27T13:03:11.327Z,1.60
2022-07-27T13:05:39.229Z,1.20
2022-07-27T13:08:07.710Z,1.80
2022-07-27T13:10:37.425Z,1.67
2022-07-27T13:13:05.892Z,1.60
2022-07-27T13:15:34.052Z,1.73
2022-07-27T13:18:02.021Z,1.30
2022-07-27T13:20:30.290Z,1.47
2022-07-27T13:22:58.211Z,1.13
2022-07-27T13:25:26.022Z,1.40
2022-07-27T13:27:55.539Z,1.30
2022-07-27T13:30:24.512Z,1.53
2022-07-27T13:32:52.487Z,1.30
2022-07-27T13:35:20.385Z,1.47
2022-07-27T13:37:48.186Z,1.50
2022-07-27T13:40:16.002Z,1.60
2022-07-27T13:42:44.114Z,1.70
2022-07-27T13:45:13.461Z,1.70
2022-07-27T13:47:42.443Z,1.40
2022-07-27T13:50:17.960Z,1.30
2022-07-27T13:52:47.468Z,1.50
2022-07-27T13:55:16.188Z,1.30
2022-07-27T13:57:46.476Z,1.57
2022-07-27T14:00:17.020Z,1.53
2022-07-27T14:02:45.903Z,1.40
2022-07-27T14:05:14.759Z,1.10
2022-07-27T14:07:44.463Z,1.40
2022-07-27T14:10:30.405Z,1.30
2022-07-27T14:13:08.134Z,1.60
2022-07-27T14:15:50.274Z,1.40
2022-07-27T14:18:22.446Z,1.50
2022-07-27T14:20:50.395Z,1.40
2022-07-27T14:23:18.321Z,1.60
2022-07-27T14:25:46.205Z,1.43
2022-07-27T14:28:13.993Z,1.40
2022-07-27T14:30:43.175Z,1.40
2022-07-27T14:33:11.202Z,1.70
2022-07-27T14:35:40.940Z,1.40
2022-07-27T14:38:09.511Z,1.53
2022-07-27T14:40:37.542Z,1.50
2022-07-27T14:43:06.215Z,1.60
2022-07-27T14:45:45.413Z,1.23
2022-07-27T14:48:25.055Z,1.27
2022-07-27T14:51:00.588Z,1.43
2022-07-27T14:53:28.560Z,1.33
2022-07-27T14:55:56.431Z,1.40
2022-07-27T14:58:24.316Z,1.23
2022-07-27T15:00:52.599Z,1.40
2022-07-27T15:03:21.901Z,1.30
2022-07-27T15:05:51.030Z,1.30
2022-07-27T15:08:19.956Z,1.70
2022-07-27T15:10:48.516Z,1.40
2022-07-27T15:13:16.689Z,1.40
2022-07-27T15:15:44.688Z,1.83
2022-07-27T15:18:12.522Z,1.40
2022-07-27T15:20:41.718Z,1.47
2022-07-27T15:23:09.573Z,1.87
2022-07-27T15:25:37.401Z,1.30
2022-07-27T15:28:05.636Z,1.30
2022-07-27T15:30:38.681Z,1.60
2022-07-27T15:33:07.018Z,1.53
2022-07-27T15:35:34.911Z,1.60
2022-07-27T15:38:04.200Z,1.60
2022-07-27T15:40:42.382Z,1.53
2022-07-27T15:43:12.844Z,1.27
2022-07-27T15:45:41.432Z,1.43
2022-07-27T15:48:11.500Z,1.50
2022-07-27T15:50:40.932Z,1.30
2022-07-27T15:53:11.333Z,1.30
2022-07-27T15:55:39.374Z,1.50
2022-07-27T15:58:07.949Z,1.50
2022-07-27T16:00:40.397Z,1.50
2022-07-27T16:03:09.662Z,1.57
2022-07-27T16:05:38.070Z,1.63
2022-07-27T16:08:07.486Z,1.40
2022-07-27T16:10:37.510Z,1.40
2022-07-27T16:13:06.392Z,1.00
2022-07-27T16:15:52.291Z,1.47
2022-07-27T16:18:20.240Z,1.07
2022-07-27T16:20:48.158Z,1.50
2022-07-27T16:23:18.763Z,1.67
2022-07-27T16:26:04.159Z,1.20
2022-07-27T16:28:35.374Z,1.33
2022-07-27T16:31:03.536Z,1.23
2022-07-27T16:33:31.477Z,1.60
2022-07-27T16:35:59.602Z,1.37
2022-07-27T16:38:27.434Z,1.83
2022-07-27T16:40:56.647Z,1.40
2022-07-27T16:43:33.933Z,1.47
2022-07-27T16:46:07.424Z,1.30
2022-07-27T16:48:41.660Z,1.20
2022-07-27T16:51:14.358Z,1.50
2022-07-27T16:53:43.871Z,1.50
2022-07-27T16:56:13.164Z,1.70
2022-07-27T16:58:41.585Z,1.43
2022-07-27T17:01:10.078Z,1.23
2022-07-27T17:03:51.249Z,1.70
2022-07-27T17:06:20.803Z,1.17
2022-07-27T17:08:48.991Z,2.07
2022-07-27T17:11:21.519Z,1.20
2022-07-27T17:13:50.985Z,1.37
2022-07-27T17:16:27.392Z,1.80
2022-07-27T17:18:55.853Z,1.43
2022-07-27T17:21:23.737Z,1.80
2022-07-27T17:23:51.631Z,1.30
2022-07-27T17:26:22.396Z,1.57
2022-07-27T17:28:53.171Z,1.30
2022-07-27T17:31:21.946Z,1.57
2022-07-27T17:33:50.588Z,1.67
2022-07-27T17:36:18.483Z,1.27
2022-07-27T17:38:47.633Z,1.30
2022-07-27T17:41:21.782Z,1.73
2022-07-27T17:43:53.391Z,1.50
2022-07-27T17:46:21.722Z,1.70
2022-07-27T17:48:49.702Z,1.63
2022-07-27T17:51:17.539Z,1.67
2022-07-27T17:53:46.490Z,1.57
2022-07-27T17:56:14.319Z,1.70
2022-07-27T17:58:42.851Z,1.50
2022-07-27T18:01:12.062Z,1.33
2022-07-27T18:03:40.103Z,1.10
2022-07-27T18:06:08.459Z,1.40
2022-07-27T18:08:36.654Z,1.53
2022-07-27T18:11:04.563Z,1.47
2022-07-27T18:13:39.360Z,1.60
2022-07-27T18:16:09.023Z,1.50
2022-07-27T18:18:39.182Z,1.60
2022-07-27T18:21:07.142Z,1.70
2022-07-27T18:23:35.750Z,1.40
2022-07-27T18:26:04.206Z,1.80
2022-07-27T18:28:38.998Z,1.47
2022-07-27T18:31:08.567Z,1.70
2022-07-27T18:33:40.155Z,1.70
2022-07-27T18:36:08.517Z,1.70
2022-07-27T18:38:36.310Z,1.80
2022-07-27T18:41:04.183Z,1.80
2022-07-27T18:43:31.965Z,1.60
2022-07-27T18:45:59.875Z,2.00
2022-07-27T18:48:28.689Z,1.60
2022-07-27T18:50:58.271Z,1.90
2022-07-27T18:53:26.072Z,2.07
2022-07-27T18:55:56.419Z,1.80
2022-07-27T18:58:25.171Z,2.13
2022-07-27T19:00:54.547Z,2.00
2022-07-27T19:03:24.578Z,2.00
2022-07-27T19:05:55.356Z,1.77
2022-07-27T19:08:24.920Z,1.70
2022-07-27T19:10:52.911Z,1.77
2022-07-27T19:13:21.073Z,2.33
2022-07-27T19:15:48.916Z,2.00
2022-07-27T19:18:16.721Z,2.10
2022-07-27T19:20:44.571Z,2.20
2022-07-27T19:23:13.178Z,1.80
2022-07-27T19:25:43.409Z,1.83
2022-07-27T19:28:11.329Z,2.13
2022-07-27T19:30:39.535Z,2.17
2022-07-27T19:33:07.443Z,2.57
2022-07-27T19:35:35.236Z,2.67
2022-07-27T19:38:03.337Z,2.40
2022-07-27T19:40:46.435Z,2.73
2022-07-27T19:43:16.197Z,2.80
2022-07-27T19:45:44.306Z,2.57
2022-07-27T19:48:12.286Z,2.40
2022-07-27T19:50:40.663Z,2.60
2022-07-27T19:53:08.549Z,2.13
2022-07-27T19:55:36.400Z,2.73
2022-07-27T19:58:04.366Z,2.30
2022-07-27T20:00:33.721Z,2.67
2022-07-27T20:03:01.755Z,2.50
2022-07-27T20:05:29.823Z,2.77
2022-07-27T20:07:57.770Z,2.20
2022-07-27T20:10:26.258Z,2.83
2022-07-27T20:12:54.142Z,2.20
2022-07-27T20:15:22.502Z,3.17
2022-07-27T20:17:52.009Z,2.47
2022-07-27T20:20:20.217Z,2.50
2022-07-27T20:22:48.716Z,2.50
2022-07-27T20:25:18.325Z,2.43
2022-07-27T20:27:46.882Z,2.30
2022-07-27T20:30:17.139Z,2.60
2022-07-27T20:32:45.377Z,2.90
2022-07-27T20:35:14.643Z,2.70
2022-07-27T20:37:42.783Z,2.67
2022-07-27T20:40:11.839Z,2.67
2022-07-27T20:42:41.218Z,2.57
2022-07-27T20:45:11.253Z,2.60
2022-07-27T20:47:39.253Z,2.50
2022-07-27T20:50:08.965Z,2.17
2022-07-27T20:52:38.468Z,2.40
2022-07-27T20:55:07.719Z,2.63
2022-07-27T20:57:36.137Z,2.10
2022-07-27T21:00:06.392Z,2.03
2022-07-27T21:02:34.616Z,2.40
2022-07-27T21:05:02.795Z,2.73
2022-07-27T21:07:31.378Z,2.33
2022-07-27T21:10:00.907Z,2.27
2022-07-27T21:12:28.970Z,2.40
2022-07-27T21:14:56.809Z,2.47
2022-07-27T21:17:24.648Z,2.50
2022-07-27T21:19:53.267Z,2.83
2022-07-27T21:22:21.169Z,2.40
2022-07-27T21:24:49.480Z,2.50
2022-07-27T21:27:21.266Z,2.63
2022-07-27T21:29:49.810Z,2.60
2022-07-27T21:32:18.486Z,1.90
2022-07-27T21:34:46.334Z,2.20
2022-07-27T21:37:14.294Z,2.50
2022-07-27T21:39:42.128Z,2.20
2022-07-27T21:42:10.001Z,2.20
2022-07-27T21:44:39.318Z,2.20
2022-07-27T21:47:13.116Z,2.50
2022-07-27T21:49:41.664Z,2.50
2022-07-27T21:52:09.581Z,3.00
2022-07-27T21:54:37.899Z,2.23
2022-07-27T21:57:06.299Z,2.40
2022-07-27T21:59:34.207Z,2.13
2022-07-27T22:02:03.468Z,2.23
2022-07-27T22:04:31.546Z,2.40
2022-07-27T22:06:59.576Z,2.17
2022-07-27T22:09:27.489Z,2.50
2022-07-27T22:11:56.382Z,2.73
2022-07-27T22:14:24.534Z,2.30
2022-07-27T22:16:53.620Z,2.60
2022-07-27T22:19:23.309Z,2.60
2022-07-27T22:21:51.145Z,2.70
2022-07-27T22:24:19.040Z,2.60
2022-07-27T22:26:46.839Z,2.63
2022-07-27T22:29:14.796Z,2.63
2022-07-27T22:31:42.749Z,2.70
2022-07-27T22:34:10.956Z,3.10
2022-07-27T22:36:40.417Z,2.50
2022-07-27T22:39:08.310Z,2.30
2022-07-27T22:41:36.209Z,2.50
2022-07-27T22:44:04.075Z,2.47
2022-07-27T22:46:31.993Z,2.37
2022-07-27T22:48:59.933Z,3.27
2022-07-27T22:51:49.785Z,2.47
2022-07-27T22:54:17.645Z,2.60
2022-07-27T22:56:45.792Z,2.70
2022-07-27T23:01:49.060Z,2.60
2022-07-27T23:04:18.170Z,2.80
2022-07-27T23:06:46.647Z,2.60
2022-07-27T23:09:16.274Z,2.70
2022-07-27T23:11:44.968Z,2.90
2022-07-27T23:14:13.328Z,2.83
2022-07-27T23:16:41.529Z,2.70
2022-07-27T23:19:09.592Z,4.50
2022-07-27T23:21:39.378Z,2.57
2022-07-27T23:24:07.741Z,2.57
2022-07-27T23:26:39.117Z,3.03
2022-07-27T23:29:07.013Z,2.40
2022-07-27T23:31:34.917Z,2.80
2022-07-27T23:34:02.865Z,2.93
2022-07-27T23:36:30.755Z,3.00
2022-07-27T23:38:58.572Z,2.80
2022-07-27T23:41:26.751Z,2.90
2022-07-27T23:43:56.012Z,3.20
2022-07-27T23:46:23.884Z,2.70
2022-07-27T23:48:51.764Z,2.30
2022-07-27T23:51:20.320Z,2.97
2022-07-27T23:53:48.824Z,3.10
2022-07-27T23:56:17.019Z,3.00
2022-07-27T23:58:45.685Z,3.17
